sensor_id;sensor_type;location;lat;lon;timestamp;temperature;humidity
9998;DHT22;5038;53.064;8.624;2023-11-19T00:01:19;7.50;99.90
9998;DHT22;5038;53.064;8.624;2023-11-19T00:03:47;7.50;99.90
9998;DHT22;5038;53.064;8.624;2023-11-19T00:06:17;7.50;99.90
9998;DHT22;5038;53.064;8.624;2023-11-19T00:08:46;7.50;99.90
9998;DHT22;5038;53.064;8.624;2023-11-19T00:11:21;7.50;99.90
9998;DHT22;5038;53.064;8.624;2023-11-19T00:14:07;7.50;99.90
9998;DHT22;5038;53.064;8.624;2023-11-19T00:16:46;7.50;99.90
9998;DHT22;5038;53.064;8.624;2023-11-19T00:19:14;7.60;99.90
9998;DHT22;5038;53.064;8.624;2023-11-19T00:21:43;7.60;99.90
9998;DHT22;5038;53.064;8.624;2023-11-19T00:24:13;7.60;99.90
9998;DHT22;5038;53.064;8.624;2023-11-19T00:26:44;7.70;99.90
9998;DHT22;5038;53.064;8.624;2023-11-19T00:29:13;7.70;99.90
9998;DHT22;5038;53.064;8.624;2023-11-19T00:31:42;7.70;99.90
9998;DHT22;5038;53.064;8.624;2023-11-19T00:34:10;7.70;99.90
9998;DHT22;5038;53.064;8.624;2023-11-19T00:36:39;7.70;99.90
9998;DHT22;5038;53.064;8.624;2023-11-19T00:39:07;7.80;99.90
9998;DHT22;5038;53.064;8.624;2023-11-19T00:41:36;7.80;99.90
9998;DHT22;5038;53.064;8.624;2023-11-19T00:44:05;7.80;99.90
9998;DHT22;5038;53.064;8.624;2023-11-19T00:46:34;7.80;99.90
9998;DHT22;5038;53.064;8.624;2023-11-19T00:49:02;7.80;99.90
9998;DHT22;5038;53.064;8.624;2023-11-19T00:51:34;7.90;99.90
9998;DHT22;5038;53.064;8.624;2023-11-19T00:54:08;7.90;99.90
9998;DHT22;5038;53.064;8.624;2023-11-19T00:56:44;7.90;99.90
9998;DHT22;5038;53.064;8.624;2023-11-19T00:59:14;7.90;99.90
9998;DHT22;5038;53.064;8.624;2023-11-19T01:01:42;7.90;99.90
9998;DHT22;5038;53.064;8.624;2023-11-19T01:04:10;8.10;99.90
9998;DHT22;5038;53.064;8.624;2023-11-19T01:06:39;8.00;99.90
9998;DHT22;5038;53.064;8.624;2023-11-19T01:09:11;8.00;99.90
9998;DHT22;5038;53.064;8.624;2023-11-19T01:11:40;8.00;99.90
9998;DHT22;5038;53.064;8.624;2023-11-19T01:14:08;8.00;99.90
9998;DHT22;5038;53.064;8.624;2023-11-19T01:16:38;8.10;99.90
9998;DHT22;5038;53.064;8.624;2023-11-19T01:19:06;8.10;99.90
9998;DHT22;5038;53.064;8.624;2023-11-19T01:21:44;8.20;99.90
9998;DHT22;5038;53.064;8.624;2023-11-19T01:24:12;8.20;99.90
9998;DHT22;5038;53.064;8.624;2023-11-19T01:26:41;8.20;99.90
9998;DHT22;5038;53.064;8.624;2023-11-19T01:29:12;8.50;99.90
9998;DHT22;5038;53.064;8.624;2023-11-19T01:31:45;8.30;99.90
9998;DHT22;5038;53.064;8.624;2023-11-19T01:34:14;8.40;99.90
9998;DHT22;5038;53.064;8.624;2023-11-19T01:36:43;8.40;99.90
9998;DHT22;5038;53.064;8.624;2023-11-19T01:39:31;8.40;99.90
9998;DHT22;5038;53.064;8.624;2023-11-19T01:41:59;8.60;99.90
9998;DHT22;5038;53.064;8.624;2023-11-19T01:44:28;8.60;99.90
9998;DHT22;5038;53.064;8.624;2023-11-19T01:46:57;8.60;99.90
9998;DHT22;5038;53.064;8.624;2023-11-19T01:49:26;8.70;99.90
9998;DHT22;5038;53.064;8.624;2023-11-19T01:51:57;8.80;99.90
9998;DHT22;5038;53.064;8.624;2023-11-19T01:54:26;8.80;99.90
9998;DHT22;5038;53.064;8.624;2023-11-19T01:56:56;8.90;99.90
9998;DHT22;5038;53.064;8.624;2023-11-19T01:59:25;9.00;99.90
9998;DHT22;5038;53.064;8.624;2023-11-19T02:01:54;9.20;99.90
9998;DHT22;5038;53.064;8.624;2023-11-19T02:04:28;9.10;99.90
9998;DHT22;5038;53.064;8.624;2023-11-19T02:06:58;9.10;99.90
9998;DHT22;5038;53.064;8.624;2023-11-19T02:09:27;9.20;99.90
9998;DHT22;5038;53.064;8.624;2023-11-19T02:11:57;9.30;99.90
9998;DHT22;5038;53.064;8.624;2023-11-19T02:14:25;9.30;99.90
9998;DHT22;5038;53.064;8.624;2023-11-19T02:16:55;9.40;99.90
9998;DHT22;5038;53.064;8.624;2023-11-19T02:22:53;9.50;99.90
9998;DHT22;5038;53.064;8.624;2023-11-19T02:25:41;9.50;99.90
9998;DHT22;5038;53.064;8.624;2023-11-19T02:28:11;9.60;99.90
9998;DHT22;5038;53.064;8.624;2023-11-19T02:30:40;9.60;99.90
9998;DHT22;5038;53.064;8.624;2023-11-19T02:33:08;9.70;99.90
9998;DHT22;5038;53.064;8.624;2023-11-19T02:35:39;9.70;99.90
9998;DHT22;5038;53.064;8.624;2023-11-19T02:38:08;9.80;99.90
9998;DHT22;5038;53.064;8.624;2023-11-19T02:40:36;9.80;99.90
9998;DHT22;5038;53.064;8.624;2023-11-19T02:43:08;9.90;99.90
9998;DHT22;5038;53.064;8.624;2023-11-19T02:45:38;9.90;99.90
9998;DHT22;5038;53.064;8.624;2023-11-19T02:48:07;9.90;99.90
9998;DHT22;5038;53.064;8.624;2023-11-19T02:50:36;10.10;99.90
9998;DHT22;5038;53.064;8.624;2023-11-19T02:53:05;10.00;99.90
9998;DHT22;5038;53.064;8.624;2023-11-19T02:55:33;10.10;99.90
9998;DHT22;5038;53.064;8.624;2023-11-19T02:58:05;10.10;99.90
9998;DHT22;5038;53.064;8.624;2023-11-19T03:00:48;10.10;99.90
9998;DHT22;5038;53.064;8.624;2023-11-19T03:03:24;10.10;99.90
9998;DHT22;5038;53.064;8.624;2023-11-19T03:05:56;10.20;99.90
9998;DHT22;5038;53.064;8.624;2023-11-19T03:08:47;10.20;99.90
9998;DHT22;5038;53.064;8.624;2023-11-19T03:11:24;10.20;99.90
9998;DHT22;5038;53.064;8.624;2023-11-19T03:13:54;10.30;99.90
9998;DHT22;5038;53.064;8.624;2023-11-19T03:16:23;10.30;99.90
9998;DHT22;5038;53.064;8.624;2023-11-19T03:18:52;10.40;99.90
9998;DHT22;5038;53.064;8.624;2023-11-19T03:21:27;10.40;99.90
9998;DHT22;5038;53.064;8.624;2023-11-19T03:23:56;10.40;99.90
9998;DHT22;5038;53.064;8.624;2023-11-19T03:26:27;10.40;99.90
9998;DHT22;5038;53.064;8.624;2023-11-19T03:28:55;10.50;99.90
9998;DHT22;5038;53.064;8.624;2023-11-19T03:31:25;10.50;99.90
9998;DHT22;5038;53.064;8.624;2023-11-19T03:33:54;10.50;99.90
9998;DHT22;5038;53.064;8.624;2023-11-19T03:36:25;10.60;99.90
9998;DHT22;5038;53.064;8.624;2023-11-19T03:38:59;10.60;99.90
9998;DHT22;5038;53.064;8.624;2023-11-19T03:41:28;10.60;99.90
9998;DHT22;5038;53.064;8.624;2023-11-19T03:44:08;10.70;99.90
9998;DHT22;5038;53.064;8.624;2023-11-19T03:46:37;10.70;99.90
9998;DHT22;5038;53.064;8.624;2023-11-19T03:49:06;10.70;99.90
9998;DHT22;5038;53.064;8.624;2023-11-19T03:51:35;10.70;99.90
9998;DHT22;5038;53.064;8.624;2023-11-19T03:54:03;10.70;99.90
9998;DHT22;5038;53.064;8.624;2023-11-19T03:56:33;10.80;99.90
9998;DHT22;5038;53.064;8.624;2023-11-19T03:59:01;10.80;99.90
9998;DHT22;5038;53.064;8.624;2023-11-19T04:01:29;10.80;99.90
9998;DHT22;5038;53.064;8.624;2023-11-19T04:03:59;10.80;99.90
9998;DHT22;5038;53.064;8.624;2023-11-19T04:06:28;10.90;99.90
9998;DHT22;5038;53.064;8.624;2023-11-19T04:08:56;10.90;99.90
9998;DHT22;5038;53.064;8.624;2023-11-19T04:11:25;10.90;99.90
9998;DHT22;5038;53.064;8.624;2023-11-19T04:13:53;10.90;99.90
9998;DHT22;5038;53.064;8.624;2023-11-19T04:16:26;11.00;99.90
9998;DHT22;5038;53.064;8.624;2023-11-19T04:18:56;11.00;99.90
9998;DHT22;5038;53.064;8.624;2023-11-19T04:21:26;11.10;99.90
9998;DHT22;5038;53.064;8.624;2023-11-19T04:23:54;11.00;99.90
9998;DHT22;5038;53.064;8.624;2023-11-19T04:26:23;11.10;99.90
9998;DHT22;5038;53.064;8.624;2023-11-19T04:28:51;11.10;99.90
9998;DHT22;5038;53.064;8.624;2023-11-19T04:31:19;11.10;99.90
9998;DHT22;5038;53.064;8.624;2023-11-19T04:33:48;11.10;99.90
9998;DHT22;5038;53.064;8.624;2023-11-19T04:36:19;11.20;99.90
9998;DHT22;5038;53.064;8.624;2023-11-19T04:38:49;11.10;99.90
9998;DHT22;5038;53.064;8.624;2023-11-19T04:41:17;11.20;99.90
9998;DHT22;5038;53.064;8.624;2023-11-19T04:43:45;11.20;99.90
9998;DHT22;5038;53.064;8.624;2023-11-19T04:46:14;11.20;99.90
9998;DHT22;5038;53.064;8.624;2023-11-19T04:48:42;11.30;99.90
9998;DHT22;5038;53.064;8.624;2023-11-19T04:51:11;11.30;99.90
9998;DHT22;5038;53.064;8.624;2023-11-19T04:53:39;11.30;99.90
9998;DHT22;5038;53.064;8.624;2023-11-19T04:56:10;11.30;99.90
9998;DHT22;5038;53.064;8.624;2023-11-19T04:58:38;11.40;99.90
9998;DHT22;5038;53.064;8.624;2023-11-19T05:01:12;11.40;99.90
9998;DHT22;5038;53.064;8.624;2023-11-19T05:03:41;11.40;99.90
9998;DHT22;5038;53.064;8.624;2023-11-19T05:06:09;11.40;99.90
9998;DHT22;5038;53.064;8.624;2023-11-19T05:08:38;11.40;99.90
9998;DHT22;5038;53.064;8.624;2023-11-19T05:11:06;11.40;99.90
9998;DHT22;5038;53.064;8.624;2023-11-19T05:13:36;11.50;99.90
9998;DHT22;5038;53.064;8.624;2023-11-19T05:16:05;11.50;99.90
9998;DHT22;5038;53.064;8.624;2023-11-19T05:18:33;11.50;99.90
9998;DHT22;5038;53.064;8.624;2023-11-19T05:21:01;11.50;99.90
9998;DHT22;5038;53.064;8.624;2023-11-19T05:23:30;11.50;99.90
9998;DHT22;5038;53.064;8.624;2023-11-19T05:25:58;11.60;99.90
9998;DHT22;5038;53.064;8.624;2023-11-19T05:28:27;11.60;99.90
9998;DHT22;5038;53.064;8.624;2023-11-19T05:30:56;11.60;99.90
9998;DHT22;5038;53.064;8.624;2023-11-19T05:33:25;11.60;99.90
9998;DHT22;5038;53.064;8.624;2023-11-19T05:35:53;11.60;99.90
9998;DHT22;5038;53.064;8.624;2023-11-19T05:38:21;11.60;99.90
9998;DHT22;5038;53.064;8.624;2023-11-19T05:40:50;11.60;99.90
9998;DHT22;5038;53.064;8.624;2023-11-19T05:43:18;11.60;99.90
9998;DHT22;5038;53.064;8.624;2023-11-19T05:45:47;11.60;99.90
9998;DHT22;5038;53.064;8.624;2023-11-19T05:48:16;11.60;99.90
9998;DHT22;5038;53.064;8.624;2023-11-19T05:50:45;11.70;99.90
9998;DHT22;5038;53.064;8.624;2023-11-19T05:53:14;11.60;99.90
9998;DHT22;5038;53.064;8.624;2023-11-19T05:55:42;11.60;99.90
9998;DHT22;5038;53.064;8.624;2023-11-19T05:58:24;11.60;99.90
9998;DHT22;5038;53.064;8.624;2023-11-19T06:00:55;11.70;99.90
9998;DHT22;5038;53.064;8.624;2023-11-19T06:03:25;11.70;99.90
9998;DHT22;5038;53.064;8.624;2023-11-19T06:05:53;11.70;99.90
9998;DHT22;5038;53.064;8.624;2023-11-19T06:08:22;11.70;99.90
9998;DHT22;5038;53.064;8.624;2023-11-19T06:10:50;11.70;99.90
9998;DHT22;5038;53.064;8.624;2023-11-19T06:13:18;11.60;99.90
9998;DHT22;5038;53.064;8.624;2023-11-19T06:15:50;11.70;99.90
9998;DHT22;5038;53.064;8.624;2023-11-19T06:18:18;11.70;99.90
9998;DHT22;5038;53.064;8.624;2023-11-19T06:20:49;11.70;99.90
9998;DHT22;5038;53.064;8.624;2023-11-19T06:23:17;11.70;99.90
9998;DHT22;5038;53.064;8.624;2023-11-19T06:25:46;11.70;99.90
9998;DHT22;5038;53.064;8.624;2023-11-19T06:28:14;11.70;99.90
9998;DHT22;5038;53.064;8.624;2023-11-19T06:30:43;11.70;99.90
9998;DHT22;5038;53.064;8.624;2023-11-19T06:33:15;11.70;99.90
9998;DHT22;5038;53.064;8.624;2023-11-19T06:35:43;11.70;99.90
9998;DHT22;5038;53.064;8.624;2023-11-19T06:38:13;11.70;99.90
9998;DHT22;5038;53.064;8.624;2023-11-19T06:40:41;11.70;99.90
9998;DHT22;5038;53.064;8.624;2023-11-19T06:43:09;11.70;99.90
9998;DHT22;5038;53.064;8.624;2023-11-19T06:45:38;11.70;99.90
9998;DHT22;5038;53.064;8.624;2023-11-19T06:48:06;11.70;99.90
9998;DHT22;5038;53.064;8.624;2023-11-19T06:50:34;11.70;99.90
9998;DHT22;5038;53.064;8.624;2023-11-19T06:53:03;11.70;99.90
9998;DHT22;5038;53.064;8.624;2023-11-19T06:55:34;11.80;99.90
9998;DHT22;5038;53.064;8.624;2023-11-19T06:58:03;11.70;99.90
9998;DHT22;5038;53.064;8.624;2023-11-19T07:00:31;11.70;99.90
9998;DHT22;5038;53.064;8.624;2023-11-19T07:02:59;11.80;99.90
9998;DHT22;5038;53.064;8.624;2023-11-19T07:05:28;11.70;99.90
9998;DHT22;5038;53.064;8.624;2023-11-19T07:07:57;11.70;99.90
9998;DHT22;5038;53.064;8.624;2023-11-19T07:10:25;11.70;99.90
9998;DHT22;5038;53.064;8.624;2023-11-19T07:12:55;11.80;99.90
9998;DHT22;5038;53.064;8.624;2023-11-19T07:15:24;11.70;99.90
9998;DHT22;5038;53.064;8.624;2023-11-19T07:17:52;11.70;99.90
9998;DHT22;5038;53.064;8.624;2023-11-19T07:20:24;11.70;99.90
9998;DHT22;5038;53.064;8.624;2023-11-19T07:22:53;11.70;99.90
9998;DHT22;5038;53.064;8.624;2023-11-19T07:25:24;11.70;99.90
9998;DHT22;5038;53.064;8.624;2023-11-19T07:27:55;11.70;99.90
9998;DHT22;5038;53.064;8.624;2023-11-19T07:30:23;11.70;99.90
9998;DHT22;5038;53.064;8.624;2023-11-19T07:32:51;11.70;99.90
9998;DHT22;5038;53.064;8.624;2023-11-19T07:35:20;11.70;99.90
9998;DHT22;5038;53.064;8.624;2023-11-19T07:37:48;11.70;99.90
9998;DHT22;5038;53.064;8.624;2023-11-19T07:40:17;11.70;99.90
9998;DHT22;5038;53.064;8.624;2023-11-19T07:42:46;11.70;99.90
9998;DHT22;5038;53.064;8.624;2023-11-19T07:45:16;11.70;99.90
9998;DHT22;5038;53.064;8.624;2023-11-19T07:47:44;11.70;99.90
9998;DHT22;5038;53.064;8.624;2023-11-19T07:50:13;11.70;99.90
9998;DHT22;5038;53.064;8.624;2023-11-19T07:52:43;11.70;99.90
9998;DHT22;5038;53.064;8.624;2023-11-19T07:55:12;11.70;99.90
9998;DHT22;5038;53.064;8.624;2023-11-19T07:57:40;11.70;99.90
9998;DHT22;5038;53.064;8.624;2023-11-19T08:00:09;11.70;99.90
9998;DHT22;5038;53.064;8.624;2023-11-19T08:02:40;11.70;99.90
9998;DHT22;5038;53.064;8.624;2023-11-19T08:05:09;11.70;99.90
9998;DHT22;5038;53.064;8.624;2023-11-19T08:07:38;11.70;99.90
9998;DHT22;5038;53.064;8.624;2023-11-19T08:10:07;11.70;99.90
9998;DHT22;5038;53.064;8.624;2023-11-19T08:12:38;11.70;99.90
9998;DHT22;5038;53.064;8.624;2023-11-19T08:15:06;11.70;99.90
9998;DHT22;5038;53.064;8.624;2023-11-19T08:17:35;11.70;99.90
9998;DHT22;5038;53.064;8.624;2023-11-19T08:20:06;11.70;99.90
9998;DHT22;5038;53.064;8.624;2023-11-19T08:22:37;11.70;99.90
9998;DHT22;5038;53.064;8.624;2023-11-19T08:25:06;11.70;99.90
9998;DHT22;5038;53.064;8.624;2023-11-19T08:27:35;11.70;99.90
9998;DHT22;5038;53.064;8.624;2023-11-19T08:30:04;11.70;99.90
9998;DHT22;5038;53.064;8.624;2023-11-19T08:32:33;11.70;99.90
9998;DHT22;5038;53.064;8.624;2023-11-19T08:35:02;11.70;99.90
9998;DHT22;5038;53.064;8.624;2023-11-19T08:37:32;11.70;99.90
9998;DHT22;5038;53.064;8.624;2023-11-19T08:40:00;11.80;99.90
9998;DHT22;5038;53.064;8.624;2023-11-19T08:42:29;11.80;99.90
9998;DHT22;5038;53.064;8.624;2023-11-19T08:44:58;11.80;99.90
9998;DHT22;5038;53.064;8.624;2023-11-19T08:47:26;11.80;99.90
9998;DHT22;5038;53.064;8.624;2023-11-19T08:49:54;11.80;99.90
9998;DHT22;5038;53.064;8.624;2023-11-19T08:52:25;11.90;99.90
9998;DHT22;5038;53.064;8.624;2023-11-19T08:54:55;11.90;99.90
9998;DHT22;5038;53.064;8.624;2023-11-19T08:57:24;11.90;99.90
9998;DHT22;5038;53.064;8.624;2023-11-19T08:59:52;11.90;99.90
9998;DHT22;5038;53.064;8.624;2023-11-19T09:02:20;11.90;99.90
9998;DHT22;5038;53.064;8.624;2023-11-19T09:04:48;12.00;99.90
9998;DHT22;5038;53.064;8.624;2023-11-19T09:07:20;12.00;99.90
9998;DHT22;5038;53.064;8.624;2023-11-19T09:09:48;12.00;99.90
9998;DHT22;5038;53.064;8.624;2023-11-19T09:12:18;12.00;99.90
9998;DHT22;5038;53.064;8.624;2023-11-19T09:14:46;12.00;99.90
9998;DHT22;5038;53.064;8.624;2023-11-19T09:17:15;12.00;99.90
9998;DHT22;5038;53.064;8.624;2023-11-19T09:19:44;12.10;99.90
9998;DHT22;5038;53.064;8.624;2023-11-19T09:22:13;12.10;99.90
9998;DHT22;5038;53.064;8.624;2023-11-19T09:24:41;12.10;99.90
9998;DHT22;5038;53.064;8.624;2023-11-19T09:27:11;12.00;99.90
9998;DHT22;5038;53.064;8.624;2023-11-19T09:29:41;12.10;99.90
9998;DHT22;5038;53.064;8.624;2023-11-19T09:32:10;12.10;99.90
9998;DHT22;5038;53.064;8.624;2023-11-19T09:34:38;12.00;99.90
9998;DHT22;5038;53.064;8.624;2023-11-19T09:37:07;12.00;99.90
9998;DHT22;5038;53.064;8.624;2023-11-19T09:39:38;12.00;99.90
9998;DHT22;5038;53.064;8.624;2023-11-19T09:42:10;12.00;99.90
9998;DHT22;5038;53.064;8.624;2023-11-19T09:44:40;12.00;99.90
9998;DHT22;5038;53.064;8.624;2023-11-19T09:47:12;12.00;99.90
9998;DHT22;5038;53.064;8.624;2023-11-19T09:49:42;12.00;99.90
9998;DHT22;5038;53.064;8.624;2023-11-19T09:52:11;12.00;99.90
9998;DHT22;5038;53.064;8.624;2023-11-19T09:54:39;12.00;99.90
9998;DHT22;5038;53.064;8.624;2023-11-19T09:57:08;12.00;99.90
9998;DHT22;5038;53.064;8.624;2023-11-19T09:59:39;11.90;99.90
9998;DHT22;5038;53.064;8.624;2023-11-19T10:02:09;11.90;99.90
9998;DHT22;5038;53.064;8.624;2023-11-19T10:04:39;11.90;99.90
9998;DHT22;5038;53.064;8.624;2023-11-19T10:07:08;11.90;99.90
9998;DHT22;5038;53.064;8.624;2023-11-19T10:09:36;11.90;99.90
9998;DHT22;5038;53.064;8.624;2023-11-19T10:12:05;11.90;99.90
9998;DHT22;5038;53.064;8.624;2023-11-19T10:14:35;11.90;99.90
9998;DHT22;5038;53.064;8.624;2023-11-19T10:17:08;11.90;99.90
9998;DHT22;5038;53.064;8.624;2023-11-19T10:19:40;11.90;99.90
9998;DHT22;5038;53.064;8.624;2023-11-19T10:22:08;11.90;99.90
9998;DHT22;5038;53.064;8.624;2023-11-19T10:24:36;12.00;99.90
9998;DHT22;5038;53.064;8.624;2023-11-19T10:27:15;12.00;99.90
9998;DHT22;5038;53.064;8.624;2023-11-19T10:29:46;12.00;99.90
9998;DHT22;5038;53.064;8.624;2023-11-19T10:32:16;12.10;99.90
9998;DHT22;5038;53.064;8.624;2023-11-19T10:35:04;12.10;99.90
9998;DHT22;5038;53.064;8.624;2023-11-19T10:37:33;12.10;99.90
9998;DHT22;5038;53.064;8.624;2023-11-19T10:40:05;12.10;99.90
9998;DHT22;5038;53.064;8.624;2023-11-19T10:42:37;12.10;99.90
9998;DHT22;5038;53.064;8.624;2023-11-19T10:45:21;12.10;99.90
9998;DHT22;5038;53.064;8.624;2023-11-19T10:47:54;12.10;99.90
9998;DHT22;5038;53.064;8.624;2023-11-19T10:50:24;12.10;99.90
9998;DHT22;5038;53.064;8.624;2023-11-19T10:52:56;12.00;99.90
9998;DHT22;5038;53.064;8.624;2023-11-19T10:55:27;12.00;99.90
9998;DHT22;5038;53.064;8.624;2023-11-19T10:57:59;12.00;99.90
9998;DHT22;5038;53.064;8.624;2023-11-19T11:00:30;12.00;99.90
9998;DHT22;5038;53.064;8.624;2023-11-19T11:03:02;12.00;99.90
9998;DHT22;5038;53.064;8.624;2023-11-19T11:05:38;12.10;99.90
9998;DHT22;5038;53.064;8.624;2023-11-19T11:08:08;12.00;99.90
9998;DHT22;5038;53.064;8.624;2023-11-19T11:10:43;12.10;99.90
9998;DHT22;5038;53.064;8.624;2023-11-19T11:13:16;12.10;99.90
9998;DHT22;5038;53.064;8.624;2023-11-19T11:15:45;12.10;99.90
9998;DHT22;5038;53.064;8.624;2023-11-19T11:18:17;12.20;99.90
9998;DHT22;5038;53.064;8.624;2023-11-19T11:20:46;12.20;99.90
9998;DHT22;5038;53.064;8.624;2023-11-19T11:23:47;12.20;99.90
9998;DHT22;5038;53.064;8.624;2023-11-19T11:26:45;12.20;99.90
9998;DHT22;5038;53.064;8.624;2023-11-19T11:29:24;12.30;99.90
9998;DHT22;5038;53.064;8.624;2023-11-19T11:32:03;12.30;99.90
9998;DHT22;5038;53.064;8.624;2023-11-19T11:34:47;12.30;99.90
9998;DHT22;5038;53.064;8.624;2023-11-19T11:37:25;12.30;99.90
9998;DHT22;5038;53.064;8.624;2023-11-19T11:39:57;12.40;99.90
9998;DHT22;5038;53.064;8.624;2023-11-19T11:42:34;12.40;99.90
9998;DHT22;5038;53.064;8.624;2023-11-19T11:45:06;12.50;99.90
9998;DHT22;5038;53.064;8.624;2023-11-19T11:48:14;12.40;99.90
9998;DHT22;5038;53.064;8.624;2023-11-19T11:50:55;12.40;99.90
9998;DHT22;5038;53.064;8.624;2023-11-19T11:53:25;12.40;99.90
9998;DHT22;5038;53.064;8.624;2023-11-19T11:55:56;12.40;99.90
9998;DHT22;5038;53.064;8.624;2023-11-19T11:58:32;12.40;99.90
9998;DHT22;5038;53.064;8.624;2023-11-19T12:01:04;12.40;99.90
9998;DHT22;5038;53.064;8.624;2023-11-19T12:03:33;12.40;99.90
9998;DHT22;5038;53.064;8.624;2023-11-19T12:06:04;12.40;99.90
9998;DHT22;5038;53.064;8.624;2023-11-19T12:08:34;12.40;99.90
9998;DHT22;5038;53.064;8.624;2023-11-19T12:11:19;12.40;99.90
9998;DHT22;5038;53.064;8.624;2023-11-19T12:13:54;12.40;99.90
9998;DHT22;5038;53.064;8.624;2023-11-19T12:16:29;12.40;99.90
9998;DHT22;5038;53.064;8.624;2023-11-19T12:19:03;12.40;99.90
9998;DHT22;5038;53.064;8.624;2023-11-19T12:21:34;12.40;99.90
9998;DHT22;5038;53.064;8.624;2023-11-19T12:24:06;12.40;99.90
9998;DHT22;5038;53.064;8.624;2023-11-19T12:26:37;12.40;99.90
9998;DHT22;5038;53.064;8.624;2023-11-19T12:29:06;12.40;99.90
9998;DHT22;5038;53.064;8.624;2023-11-19T12:31:36;12.40;99.90
9998;DHT22;5038;53.064;8.624;2023-11-19T12:34:09;12.40;99.90
9998;DHT22;5038;53.064;8.624;2023-11-19T12:36:41;12.40;99.90
9998;DHT22;5038;53.064;8.624;2023-11-19T12:39:10;12.30;99.90
9998;DHT22;5038;53.064;8.624;2023-11-19T12:41:51;12.30;99.90
9998;DHT22;5038;53.064;8.624;2023-11-19T12:44:20;12.20;99.90
9998;DHT22;5038;53.064;8.624;2023-11-19T12:47:04;12.20;99.90
9998;DHT22;5038;53.064;8.624;2023-11-19T12:49:33;12.20;99.90
9998;DHT22;5038;53.064;8.624;2023-11-19T12:52:11;12.10;99.90
9998;DHT22;5038;53.064;8.624;2023-11-19T12:54:40;12.10;99.90
9998;DHT22;5038;53.064;8.624;2023-11-19T12:57:08;12.00;99.90
9998;DHT22;5038;53.064;8.624;2023-11-19T12:59:37;11.90;99.90
9998;DHT22;5038;53.064;8.624;2023-11-19T13:02:05;11.90;99.90
9998;DHT22;5038;53.064;8.624;2023-11-19T13:04:34;11.80;99.90
9998;DHT22;5038;53.064;8.624;2023-11-19T13:07:04;11.70;99.90
9998;DHT22;5038;53.064;8.624;2023-11-19T13:09:33;11.60;99.90
9998;DHT22;5038;53.064;8.624;2023-11-19T13:12:12;11.50;99.90
9998;DHT22;5038;53.064;8.624;2023-11-19T13:14:42;11.40;99.90
9998;DHT22;5038;53.064;8.624;2023-11-19T13:17:16;11.40;99.90
9998;DHT22;5038;53.064;8.624;2023-11-19T13:19:47;11.30;99.90
9998;DHT22;5038;53.064;8.624;2023-11-19T13:22:17;11.30;99.90
9998;DHT22;5038;53.064;8.624;2023-11-19T13:24:45;11.20;99.90
9998;DHT22;5038;53.064;8.624;2023-11-19T13:27:14;11.30;99.90
9998;DHT22;5038;53.064;8.624;2023-11-19T13:29:42;11.20;99.90
9998;DHT22;5038;53.064;8.624;2023-11-19T13:32:10;11.20;99.90
9998;DHT22;5038;53.064;8.624;2023-11-19T13:34:38;11.20;99.90
9998;DHT22;5038;53.064;8.624;2023-11-19T13:37:07;11.20;99.90
9998;DHT22;5038;53.064;8.624;2023-11-19T13:39:41;11.20;99.90
9998;DHT22;5038;53.064;8.624;2023-11-19T13:42:10;11.20;99.90
9998;DHT22;5038;53.064;8.624;2023-11-19T13:44:39;11.20;99.90
9998;DHT22;5038;53.064;8.624;2023-11-19T13:47:09;11.30;99.90
9998;DHT22;5038;53.064;8.624;2023-11-19T13:49:38;11.30;99.90
9998;DHT22;5038;53.064;8.624;2023-11-19T13:52:06;11.30;99.90
9998;DHT22;5038;53.064;8.624;2023-11-19T13:54:38;11.40;99.90
9998;DHT22;5038;53.064;8.624;2023-11-19T13:57:06;11.40;99.90
9998;DHT22;5038;53.064;8.624;2023-11-19T13:59:39;11.40;99.90
9998;DHT22;5038;53.064;8.624;2023-11-19T14:02:08;11.50;99.90
9998;DHT22;5038;53.064;8.624;2023-11-19T14:04:36;11.50;99.90
9998;DHT22;5038;53.064;8.624;2023-11-19T14:07:05;11.50;99.90
9998;DHT22;5038;53.064;8.624;2023-11-19T14:09:33;11.50;99.90
9998;DHT22;5038;53.064;8.624;2023-11-19T14:12:03;11.50;99.90
9998;DHT22;5038;53.064;8.624;2023-11-19T14:14:31;11.50;99.90
9998;DHT22;5038;53.064;8.624;2023-11-19T14:17:01;11.50;99.90
9998;DHT22;5038;53.064;8.624;2023-11-19T14:19:33;11.60;99.90
9998;DHT22;5038;53.064;8.624;2023-11-19T14:22:01;11.60;99.90
9998;DHT22;5038;53.064;8.624;2023-11-19T14:24:29;11.60;99.90
9998;DHT22;5038;53.064;8.624;2023-11-19T14:26:58;11.60;99.90
9998;DHT22;5038;53.064;8.624;2023-11-19T14:29:28;11.60;99.90
9998;DHT22;5038;53.064;8.624;2023-11-19T14:31:56;11.60;99.90
9998;DHT22;5038;53.064;8.624;2023-11-19T14:34:26;11.60;99.90
9998;DHT22;5038;53.064;8.624;2023-11-19T14:36:54;11.50;99.90
9998;DHT22;5038;53.064;8.624;2023-11-19T14:39:23;11.50;99.90
9998;DHT22;5038;53.064;8.624;2023-11-19T14:41:51;11.50;99.90
9998;DHT22;5038;53.064;8.624;2023-11-19T14:44:20;11.50;99.90
9998;DHT22;5038;53.064;8.624;2023-11-19T14:46:50;11.40;99.90
9998;DHT22;5038;53.064;8.624;2023-11-19T14:49:18;11.40;99.90
9998;DHT22;5038;53.064;8.624;2023-11-19T14:51:46;11.40;99.90
9998;DHT22;5038;53.064;8.624;2023-11-19T14:54:15;11.40;99.90
9998;DHT22;5038;53.064;8.624;2023-11-19T14:56:43;11.40;99.90
9998;DHT22;5038;53.064;8.624;2023-11-19T14:59:11;11.40;99.90
9998;DHT22;5038;53.064;8.624;2023-11-19T15:01:40;11.40;99.90
9998;DHT22;5038;53.064;8.624;2023-11-19T15:04:09;11.40;99.90
9998;DHT22;5038;53.064;8.624;2023-11-19T15:06:38;11.40;99.90
9998;DHT22;5038;53.064;8.624;2023-11-19T15:09:07;11.40;99.90
9998;DHT22;5038;53.064;8.624;2023-11-19T15:11:36;11.40;99.90
9998;DHT22;5038;53.064;8.624;2023-11-19T15:14:04;11.40;99.90
9998;DHT22;5038;53.064;8.624;2023-11-19T15:16:33;11.40;99.90
9998;DHT22;5038;53.064;8.624;2023-11-19T15:19:02;11.40;99.90
9998;DHT22;5038;53.064;8.624;2023-11-19T15:21:32;11.30;99.90
9998;DHT22;5038;53.064;8.624;2023-11-19T15:24:01;11.30;99.90
9998;DHT22;5038;53.064;8.624;2023-11-19T15:26:31;11.30;99.90
9998;DHT22;5038;53.064;8.624;2023-11-19T15:28:59;11.30;99.90
9998;DHT22;5038;53.064;8.624;2023-11-19T15:31:28;11.30;99.90
9998;DHT22;5038;53.064;8.624;2023-11-19T15:33:56;11.30;99.90
9998;DHT22;5038;53.064;8.624;2023-11-19T15:36:25;11.30;99.90
9998;DHT22;5038;53.064;8.624;2023-11-19T15:38:54;11.30;99.90
9998;DHT22;5038;53.064;8.624;2023-11-19T15:41:22;11.30;99.90
9998;DHT22;5038;53.064;8.624;2023-11-19T15:43:51;11.30;99.90
9998;DHT22;5038;53.064;8.624;2023-11-19T15:46:19;11.40;99.90
9998;DHT22;5038;53.064;8.624;2023-11-19T15:48:47;11.30;99.90
9998;DHT22;5038;53.064;8.624;2023-11-19T15:51:16;11.30;99.90
9998;DHT22;5038;53.064;8.624;2023-11-19T15:53:44;11.30;99.90
9998;DHT22;5038;53.064;8.624;2023-11-19T15:56:17;11.30;99.90
9998;DHT22;5038;53.064;8.624;2023-11-19T15:58:46;11.30;99.90
9998;DHT22;5038;53.064;8.624;2023-11-19T16:01:16;11.30;99.90
9998;DHT22;5038;53.064;8.624;2023-11-19T16:03:45;11.30;99.90
9998;DHT22;5038;53.064;8.624;2023-11-19T16:06:16;11.30;99.90
9998;DHT22;5038;53.064;8.624;2023-11-19T16:08:45;11.30;99.90
9998;DHT22;5038;53.064;8.624;2023-11-19T16:11:15;11.30;99.90
9998;DHT22;5038;53.064;8.624;2023-11-19T16:13:44;11.30;99.90
9998;DHT22;5038;53.064;8.624;2023-11-19T16:16:12;11.30;99.90
9998;DHT22;5038;53.064;8.624;2023-11-19T16:18:40;11.30;99.90
9998;DHT22;5038;53.064;8.624;2023-11-19T16:21:09;11.30;99.90
9998;DHT22;5038;53.064;8.624;2023-11-19T16:23:37;11.30;99.90
9998;DHT22;5038;53.064;8.624;2023-11-19T16:26:06;11.30;99.90
9998;DHT22;5038;53.064;8.624;2023-11-19T16:28:36;11.30;99.90